Terminal Aerodrome Forecast
Issued by NWS

Current Version | Previous Version | Text Only | Print | Product List | Glossary On
Versions: 1 2 3 4 5 6 7 8 9 10 11 12 13 14 15 16 17 18 19 20
000
FTUS42 KGSP 011133
TAFAND
TAF
KAND 011133Z 0112/0212 00000KT P6SM FEW001
     FM011400 04004KT P6SM FEW060
     FM020100 VRB03KT P6SM SCT100
     FM020900 00000KT 3SM BR FEW100=

USA.gov is the U.S. government's official web portal to all federal, state and local government web resources and services.